sensor_id;sensor_type;location;lat;lon;timestamp;P1;durP1;ratioP1;P2;durP2;ratioP2
23046;SDS011;11691;51.462;6.902;2022-07-24T00:01:38;5.47;;;2.95;;
23046;SDS011;11691;51.462;6.902;2022-07-24T00:04:05;3.80;;;3.20;;
23046;SDS011;11691;51.462;6.902;2022-07-24T00:06:31;3.63;;;3.30;;
23046;SDS011;11691;51.462;6.902;2022-07-24T00:08:57;5.47;;;3.30;;
23046;SDS011;11691;51.462;6.902;2022-07-24T00:11:24;4.15;;;3.22;;
23046;SDS011;11691;51.462;6.902;2022-07-24T00:13:49;4.75;;;3.30;;
23046;SDS011;11691;51.462;6.902;2022-07-24T00:16:15;7.60;;;3.15;;
23046;SDS011;11691;51.462;6.902;2022-07-24T00:18:40;3.83;;;2.80;;
23046;SDS011;11691;51.462;6.902;2022-07-24T00:21:07;5.00;;;2.85;;
23046;SDS011;11691;51.462;6.902;2022-07-24T00:23:33;5.82;;;3.30;;
23046;SDS011;11691;51.462;6.902;2022-07-24T00:25:59;4.85;;;2.88;;
23046;SDS011;11691;51.462;6.902;2022-07-24T00:28:25;4.18;;;3.22;;
23046;SDS011;11691;51.462;6.902;2022-07-24T00:30:51;3.88;;;3.25;;
23046;SDS011;11691;51.462;6.902;2022-07-24T00:33:17;5.60;;;2.90;;
23046;SDS011;11691;51.462;6.902;2022-07-24T00:35:43;6.47;;;3.30;;
23046;SDS011;11691;51.462;6.902;2022-07-24T00:38:09;6.70;;;3.42;;
23046;SDS011;11691;51.462;6.902;2022-07-24T00:40:35;6.55;;;3.63;;
23046;SDS011;11691;51.462;6.902;2022-07-24T00:43:02;3.45;;;3.15;;
23046;SDS011;11691;51.462;6.902;2022-07-24T00:45:28;3.55;;;3.25;;
23046;SDS011;11691;51.462;6.902;2022-07-24T00:47:54;4.43;;;3.00;;
23046;SDS011;11691;51.462;6.902;2022-07-24T00:50:20;6.10;;;3.65;;
23046;SDS011;11691;51.462;6.902;2022-07-24T00:52:46;4.93;;;3.25;;
23046;SDS011;11691;51.462;6.902;2022-07-24T00:55:12;6.32;;;3.30;;
23046;SDS011;11691;51.462;6.902;2022-07-24T00:57:38;4.32;;;3.40;;
23046;SDS011;11691;51.462;6.902;2022-07-24T01:00:05;6.25;;;3.63;;
23046;SDS011;11691;51.462;6.902;2022-07-24T01:02:32;4.90;;;3.60;;
23046;SDS011;11691;51.462;6.902;2022-07-24T01:04:58;5.15;;;3.13;;
23046;SDS011;11691;51.462;6.902;2022-07-24T01:07:24;4.95;;;3.25;;
23046;SDS011;11691;51.462;6.902;2022-07-24T01:09:50;8.77;;;3.25;;
23046;SDS011;11691;51.462;6.902;2022-07-24T01:12:16;5.90;;;3.53;;
23046;SDS011;11691;51.462;6.902;2022-07-24T01:14:42;5.97;;;3.75;;
23046;SDS011;11691;51.462;6.902;2022-07-24T01:17:08;4.07;;;3.30;;
23046;SDS011;11691;51.462;6.902;2022-07-24T01:19:34;4.07;;;3.28;;
23046;SDS011;11691;51.462;6.902;2022-07-24T01:22:00;5.32;;;3.45;;
23046;SDS011;11691;51.462;6.902;2022-07-24T01:24:26;3.92;;;3.38;;
23046;SDS011;11691;51.462;6.902;2022-07-24T01:26:52;4.80;;;3.42;;
23046;SDS011;11691;51.462;6.902;2022-07-24T01:29:18;5.00;;;3.42;;
23046;SDS011;11691;51.462;6.902;2022-07-24T01:31:45;4.13;;;3.70;;
23046;SDS011;11691;51.462;6.902;2022-07-24T01:34:10;3.90;;;3.50;;
23046;SDS011;11691;51.462;6.902;2022-07-24T01:36:38;5.80;;;3.53;;
23046;SDS011;11691;51.462;6.902;2022-07-24T01:39:04;3.55;;;3.25;;
23046;SDS011;11691;51.462;6.902;2022-07-24T01:41:29;5.82;;;3.25;;
23046;SDS011;11691;51.462;6.902;2022-07-24T01:43:55;4.85;;;3.08;;
23046;SDS011;11691;51.462;6.902;2022-07-24T01:46:21;5.88;;;3.17;;
23046;SDS011;11691;51.462;6.902;2022-07-24T01:48:47;4.93;;;3.78;;
23046;SDS011;11691;51.462;6.902;2022-07-24T01:51:13;4.03;;;3.60;;
23046;SDS011;11691;51.462;6.902;2022-07-24T01:53:39;6.38;;;3.50;;
23046;SDS011;11691;51.462;6.902;2022-07-24T01:56:05;4.93;;;3.88;;
23046;SDS011;11691;51.462;6.902;2022-07-24T01:58:31;5.93;;;3.53;;
23046;SDS011;11691;51.462;6.902;2022-07-24T02:00:57;4.72;;;3.58;;
23046;SDS011;11691;51.462;6.902;2022-07-24T02:03:23;3.88;;;3.40;;
23046;SDS011;11691;51.462;6.902;2022-07-24T02:05:49;6.18;;;3.83;;
23046;SDS011;11691;51.462;6.902;2022-07-24T02:08:15;4.13;;;3.17;;
23046;SDS011;11691;51.462;6.902;2022-07-24T02:10:41;6.80;;;3.58;;
23046;SDS011;11691;51.462;6.902;2022-07-24T02:13:07;5.57;;;3.40;;
23046;SDS011;11691;51.462;6.902;2022-07-24T02:15:33;7.97;;;4.03;;
23046;SDS011;11691;51.462;6.902;2022-07-24T02:18:00;3.60;;;3.13;;
23046;SDS011;11691;51.462;6.902;2022-07-24T02:20:26;5.07;;;3.65;;
23046;SDS011;11691;51.462;6.902;2022-07-24T02:22:53;5.10;;;3.38;;
23046;SDS011;11691;51.462;6.902;2022-07-24T02:25:18;6.43;;;3.60;;
23046;SDS011;11691;51.462;6.902;2022-07-24T02:27:44;4.97;;;3.72;;
23046;SDS011;11691;51.462;6.902;2022-07-24T02:30:12;3.88;;;3.47;;
23046;SDS011;11691;51.462;6.902;2022-07-24T02:32:40;4.57;;;3.67;;
23046;SDS011;11691;51.462;6.902;2022-07-24T02:35:06;5.35;;;3.25;;
23046;SDS011;11691;51.462;6.902;2022-07-24T02:37:39;4.65;;;3.70;;
23046;SDS011;11691;51.462;6.902;2022-07-24T02:40:06;5.20;;;3.58;;
23046;SDS011;11691;51.462;6.902;2022-07-24T02:42:33;6.07;;;3.50;;
23046;SDS011;11691;51.462;6.902;2022-07-24T02:44:59;5.00;;;3.45;;
23046;SDS011;11691;51.462;6.902;2022-07-24T02:47:25;6.35;;;3.40;;
23046;SDS011;11691;51.462;6.902;2022-07-24T02:49:51;5.60;;;3.70;;
23046;SDS011;11691;51.462;6.902;2022-07-24T02:52:16;5.38;;;3.50;;
23046;SDS011;11691;51.462;6.902;2022-07-24T02:54:42;4.15;;;3.70;;
23046;SDS011;11691;51.462;6.902;2022-07-24T02:57:08;7.20;;;3.47;;
23046;SDS011;11691;51.462;6.902;2022-07-24T02:59:34;4.30;;;3.55;;
23046;SDS011;11691;51.462;6.902;2022-07-24T03:02:00;5.82;;;3.83;;
23046;SDS011;11691;51.462;6.902;2022-07-24T03:04:26;6.15;;;3.63;;
23046;SDS011;11691;51.462;6.902;2022-07-24T03:06:52;5.88;;;3.70;;
23046;SDS011;11691;51.462;6.902;2022-07-24T03:09:18;7.82;;;4.00;;
23046;SDS011;11691;51.462;6.902;2022-07-24T03:11:44;4.82;;;3.83;;
23046;SDS011;11691;51.462;6.902;2022-07-24T03:14:10;4.88;;;3.47;;
23046;SDS011;11691;51.462;6.902;2022-07-24T03:16:36;5.57;;;3.80;;
23046;SDS011;11691;51.462;6.902;2022-07-24T03:19:02;7.03;;;4.57;;
23046;SDS011;11691;51.462;6.902;2022-07-24T03:21:29;7.45;;;4.20;;
23046;SDS011;11691;51.462;6.902;2022-07-24T03:23:55;5.22;;;3.95;;
23046;SDS011;11691;51.462;6.902;2022-07-24T03:26:21;4.15;;;3.33;;
23046;SDS011;11691;51.462;6.902;2022-07-24T03:28:47;4.10;;;3.58;;
23046;SDS011;11691;51.462;6.902;2022-07-24T03:31:13;4.13;;;3.67;;
23046;SDS011;11691;51.462;6.902;2022-07-24T03:33:39;4.95;;;3.90;;
23046;SDS011;11691;51.462;6.902;2022-07-24T03:36:05;5.28;;;4.03;;
23046;SDS011;11691;51.462;6.902;2022-07-24T03:38:31;5.47;;;3.83;;
23046;SDS011;11691;51.462;6.902;2022-07-24T03:40:57;4.53;;;3.80;;
23046;SDS011;11691;51.462;6.902;2022-07-24T03:43:23;4.13;;;3.33;;
23046;SDS011;11691;51.462;6.902;2022-07-24T03:45:48;5.97;;;3.88;;
23046;SDS011;11691;51.462;6.902;2022-07-24T03:48:14;6.63;;;4.00;;
23046;SDS011;11691;51.462;6.902;2022-07-24T03:50:40;4.03;;;3.65;;
23046;SDS011;11691;51.462;6.902;2022-07-24T03:53:06;7.47;;;4.18;;
23046;SDS011;11691;51.462;6.902;2022-07-24T03:55:32;5.65;;;4.03;;
23046;SDS011;11691;51.462;6.902;2022-07-24T03:57:58;4.72;;;4.22;;
23046;SDS011;11691;51.462;6.902;2022-07-24T04:00:24;8.45;;;4.35;;
23046;SDS011;11691;51.462;6.902;2022-07-24T04:02:50;4.65;;;4.15;;
23046;SDS011;11691;51.462;6.902;2022-07-24T04:05:16;4.75;;;4.35;;
23046;SDS011;11691;51.462;6.902;2022-07-24T04:07:42;5.43;;;3.85;;
23046;SDS011;11691;51.462;6.902;2022-07-24T04:10:08;4.43;;;4.03;;
23046;SDS011;11691;51.462;6.902;2022-07-24T04:12:34;5.95;;;4.07;;
23046;SDS011;11691;51.462;6.902;2022-07-24T04:15:00;4.80;;;4.28;;
23046;SDS011;11691;51.462;6.902;2022-07-24T04:17:26;7.72;;;4.32;;
23046;SDS011;11691;51.462;6.902;2022-07-24T04:19:52;7.72;;;4.20;;
23046;SDS011;11691;51.462;6.902;2022-07-24T04:22:18;6.25;;;4.30;;
23046;SDS011;11691;51.462;6.902;2022-07-24T04:24:44;4.68;;;4.25;;
23046;SDS011;11691;51.462;6.902;2022-07-24T04:27:10;4.97;;;4.40;;
23046;SDS011;11691;51.462;6.902;2022-07-24T04:29:36;6.80;;;4.07;;
23046;SDS011;11691;51.462;6.902;2022-07-24T04:32:02;6.80;;;4.38;;
23046;SDS011;11691;51.462;6.902;2022-07-24T04:34:28;7.18;;;4.38;;
23046;SDS011;11691;51.462;6.902;2022-07-24T04:36:54;4.93;;;4.43;;
23046;SDS011;11691;51.462;6.902;2022-07-24T04:39:20;5.93;;;4.40;;
23046;SDS011;11691;51.462;6.902;2022-07-24T04:41:46;6.82;;;4.10;;
23046;SDS011;11691;51.462;6.902;2022-07-24T04:44:12;7.55;;;4.53;;
23046;SDS011;11691;51.462;6.902;2022-07-24T04:46:37;5.00;;;4.10;;
23046;SDS011;11691;51.462;6.902;2022-07-24T04:49:03;6.30;;;4.50;;
23046;SDS011;11691;51.462;6.902;2022-07-24T04:51:29;7.35;;;4.47;;
23046;SDS011;11691;51.462;6.902;2022-07-24T04:53:55;5.68;;;4.47;;
23046;SDS011;11691;51.462;6.902;2022-07-24T04:56:21;7.38;;;5.07;;
23046;SDS011;11691;51.462;6.902;2022-07-24T04:58:47;7.97;;;4.70;;
23046;SDS011;11691;51.462;6.902;2022-07-24T05:01:13;5.03;;;4.57;;
23046;SDS011;11691;51.462;6.902;2022-07-24T05:03:40;6.22;;;4.07;;
23046;SDS011;11691;51.462;6.902;2022-07-24T05:06:06;5.47;;;4.80;;
23046;SDS011;11691;51.462;6.902;2022-07-24T05:08:32;6.55;;;4.53;;
23046;SDS011;11691;51.462;6.902;2022-07-24T05:10:57;5.88;;;4.63;;
23046;SDS011;11691;51.462;6.902;2022-07-24T05:13:23;8.43;;;4.55;;
23046;SDS011;11691;51.462;6.902;2022-07-24T05:15:49;6.53;;;4.68;;
23046;SDS011;11691;51.462;6.902;2022-07-24T05:18:15;4.80;;;4.30;;
23046;SDS011;11691;51.462;6.902;2022-07-24T05:20:41;7.13;;;4.55;;
23046;SDS011;11691;51.462;6.902;2022-07-24T05:23:08;5.68;;;4.20;;
23046;SDS011;11691;51.462;6.902;2022-07-24T05:25:34;4.88;;;4.13;;
23046;SDS011;11691;51.462;6.902;2022-07-24T05:28:00;5.68;;;4.38;;
23046;SDS011;11691;51.462;6.902;2022-07-24T05:30:26;4.82;;;4.32;;
23046;SDS011;11691;51.462;6.902;2022-07-24T05:32:52;9.90;;;4.57;;
23046;SDS011;11691;51.462;6.902;2022-07-24T05:35:18;5.93;;;4.88;;
23046;SDS011;11691;51.462;6.902;2022-07-24T05:37:44;4.63;;;4.10;;
23046;SDS011;11691;51.462;6.902;2022-07-24T05:40:10;6.20;;;4.78;;
23046;SDS011;11691;51.462;6.902;2022-07-24T05:42:36;6.25;;;4.47;;
23046;SDS011;11691;51.462;6.902;2022-07-24T05:45:02;6.32;;;4.57;;
23046;SDS011;11691;51.462;6.902;2022-07-24T05:47:34;6.53;;;4.47;;
23046;SDS011;11691;51.462;6.902;2022-07-24T05:50:00;4.43;;;4.03;;
23046;SDS011;11691;51.462;6.902;2022-07-24T05:52:26;5.93;;;4.25;;
23046;SDS011;11691;51.462;6.902;2022-07-24T05:54:52;5.90;;;4.45;;
23046;SDS011;11691;51.462;6.902;2022-07-24T05:57:18;7.78;;;4.63;;
23046;SDS011;11691;51.462;6.902;2022-07-24T05:59:43;6.53;;;4.55;;
23046;SDS011;11691;51.462;6.902;2022-07-24T06:02:09;6.00;;;4.28;;
23046;SDS011;11691;51.462;6.902;2022-07-24T06:04:35;7.07;;;4.00;;
23046;SDS011;11691;51.462;6.902;2022-07-24T06:07:06;5.43;;;4.57;;
23046;SDS011;11691;51.462;6.902;2022-07-24T06:09:33;6.97;;;4.50;;
23046;SDS011;11691;51.462;6.902;2022-07-24T06:12:00;5.43;;;4.40;;
23046;SDS011;11691;51.462;6.902;2022-07-24T06:14:25;6.55;;;4.57;;
23046;SDS011;11691;51.462;6.902;2022-07-24T06:16:51;6.53;;;5.10;;
23046;SDS011;11691;51.462;6.902;2022-07-24T06:19:17;7.70;;;4.95;;
23046;SDS011;11691;51.462;6.902;2022-07-24T06:21:43;6.60;;;4.80;;
23046;SDS011;11691;51.462;6.902;2022-07-24T06:24:09;7.10;;;4.65;;
23046;SDS011;11691;51.462;6.902;2022-07-24T06:26:35;5.45;;;4.72;;
23046;SDS011;11691;51.462;6.902;2022-07-24T06:29:01;6.15;;;4.95;;
23046;SDS011;11691;51.462;6.902;2022-07-24T06:31:27;7.53;;;4.93;;
23046;SDS011;11691;51.462;6.902;2022-07-24T06:33:53;7.43;;;5.32;;
23046;SDS011;11691;51.462;6.902;2022-07-24T06:36:19;7.10;;;4.57;;
23046;SDS011;11691;51.462;6.902;2022-07-24T06:38:45;10.05;;;4.90;;
23046;SDS011;11691;51.462;6.902;2022-07-24T06:41:11;6.53;;;4.57;;
23046;SDS011;11691;51.462;6.902;2022-07-24T06:43:36;5.03;;;4.53;;
23046;SDS011;11691;51.462;6.902;2022-07-24T06:46:02;6.30;;;5.00;;
23046;SDS011;11691;51.462;6.902;2022-07-24T06:48:29;9.02;;;4.90;;
23046;SDS011;11691;51.462;6.902;2022-07-24T06:50:55;6.25;;;4.72;;
23046;SDS011;11691;51.462;6.902;2022-07-24T06:53:20;8.07;;;4.80;;
23046;SDS011;11691;51.462;6.902;2022-07-24T06:55:46;5.70;;;4.60;;
23046;SDS011;11691;51.462;6.902;2022-07-24T06:58:12;8.23;;;5.07;;
23046;SDS011;11691;51.462;6.902;2022-07-24T07:00:38;5.38;;;4.43;;
23046;SDS011;11691;51.462;6.902;2022-07-24T07:03:04;6.55;;;4.53;;
23046;SDS011;11691;51.462;6.902;2022-07-24T07:05:31;5.03;;;4.50;;
23046;SDS011;11691;51.462;6.902;2022-07-24T07:07:57;5.60;;;4.28;;
23046;SDS011;11691;51.462;6.902;2022-07-24T07:10:23;7.28;;;4.60;;
23046;SDS011;11691;51.462;6.902;2022-07-24T07:12:49;6.63;;;5.30;;
23046;SDS011;11691;51.462;6.902;2022-07-24T07:15:14;5.28;;;4.50;;
23046;SDS011;11691;51.462;6.902;2022-07-24T07:17:40;7.30;;;4.28;;
23046;SDS011;11691;51.462;6.902;2022-07-24T07:20:07;5.90;;;4.32;;
23046;SDS011;11691;51.462;6.902;2022-07-24T07:22:35;6.22;;;4.20;;
23046;SDS011;11691;51.462;6.902;2022-07-24T07:25:01;4.80;;;4.30;;
23046;SDS011;11691;51.462;6.902;2022-07-24T07:27:27;5.50;;;4.70;;
23046;SDS011;11691;51.462;6.902;2022-07-24T07:29:53;6.72;;;5.10;;
23046;SDS011;11691;51.462;6.902;2022-07-24T07:32:19;6.28;;;4.85;;
23046;SDS011;11691;51.462;6.902;2022-07-24T07:34:45;6.35;;;5.30;;
23046;SDS011;11691;51.462;6.902;2022-07-24T07:37:11;6.00;;;5.25;;
23046;SDS011;11691;51.462;6.902;2022-07-24T07:39:37;5.95;;;5.25;;
23046;SDS011;11691;51.462;6.902;2022-07-24T07:42:03;10.65;;;5.43;;
23046;SDS011;11691;51.462;6.902;2022-07-24T07:44:29;9.23;;;5.40;;
23046;SDS011;11691;51.462;6.902;2022-07-24T07:46:55;7.68;;;5.40;;
23046;SDS011;11691;51.462;6.902;2022-07-24T07:49:21;11.13;;;5.70;;
23046;SDS011;11691;51.462;6.902;2022-07-24T07:51:47;7.82;;;5.88;;
23046;SDS011;11691;51.462;6.902;2022-07-24T07:54:16;9.52;;;5.75;;
23046;SDS011;11691;51.462;6.902;2022-07-24T07:56:42;8.20;;;6.38;;
23046;SDS011;11691;51.462;6.902;2022-07-24T07:59:08;10.55;;;5.90;;
23046;SDS011;11691;51.462;6.902;2022-07-24T08:01:34;8.13;;;5.68;;
23046;SDS011;11691;51.462;6.902;2022-07-24T08:04:00;9.10;;;6.00;;
23046;SDS011;11691;51.462;6.902;2022-07-24T08:06:25;9.05;;;5.95;;
23046;SDS011;11691;51.462;6.902;2022-07-24T08:08:52;8.23;;;5.63;;
23046;SDS011;11691;51.462;6.902;2022-07-24T08:11:18;8.10;;;6.32;;
23046;SDS011;11691;51.462;6.902;2022-07-24T08:13:44;9.88;;;5.82;;
23046;SDS011;11691;51.462;6.902;2022-07-24T08:16:10;9.40;;;6.28;;
23046;SDS011;11691;51.462;6.902;2022-07-24T08:18:36;7.63;;;5.47;;
23046;SDS011;11691;51.462;6.902;2022-07-24T08:21:02;8.95;;;6.45;;
23046;SDS011;11691;51.462;6.902;2022-07-24T08:23:28;7.47;;;6.13;;
23046;SDS011;11691;51.462;6.902;2022-07-24T08:25:54;8.80;;;6.20;;
23046;SDS011;11691;51.462;6.902;2022-07-24T08:28:20;8.05;;;5.90;;
23046;SDS011;11691;51.462;6.902;2022-07-24T08:30:48;6.35;;;5.53;;
23046;SDS011;11691;51.462;6.902;2022-07-24T08:33:14;7.82;;;5.72;;
23046;SDS011;11691;51.462;6.902;2022-07-24T08:35:40;10.38;;;6.70;;
23046;SDS011;11691;51.462;6.902;2022-07-24T08:38:06;11.10;;;6.38;;
23046;SDS011;11691;51.462;6.902;2022-07-24T08:40:39;8.52;;;5.32;;
23046;SDS011;11691;51.462;6.902;2022-07-24T08:43:06;9.50;;;6.07;;
23046;SDS011;11691;51.462;6.902;2022-07-24T08:45:38;10.57;;;6.25;;
23046;SDS011;11691;51.462;6.902;2022-07-24T08:48:05;11.40;;;6.07;;
23046;SDS011;11691;51.462;6.902;2022-07-24T08:50:32;8.10;;;5.93;;
23046;SDS011;11691;51.462;6.902;2022-07-24T08:52:59;8.05;;;6.15;;
23046;SDS011;11691;51.462;6.902;2022-07-24T08:55:28;9.60;;;6.78;;
23046;SDS011;11691;51.462;6.902;2022-07-24T08:57:57;8.80;;;6.18;;
23046;SDS011;11691;51.462;6.902;2022-07-24T09:00:25;10.68;;;5.88;;
23046;SDS011;11691;51.462;6.902;2022-07-24T09:02:51;9.15;;;6.57;;
23046;SDS011;11691;51.462;6.902;2022-07-24T09:05:17;8.02;;;6.03;;
23046;SDS011;11691;51.462;6.902;2022-07-24T09:07:43;8.00;;;6.30;;
23046;SDS011;11691;51.462;6.902;2022-07-24T09:10:10;6.65;;;5.95;;
23046;SDS011;11691;51.462;6.902;2022-07-24T09:12:38;8.63;;;6.05;;
23046;SDS011;11691;51.462;6.902;2022-07-24T09:15:16;8.43;;;5.20;;
23046;SDS011;11691;51.462;6.902;2022-07-24T09:17:55;8.10;;;5.75;;
23046;SDS011;11691;51.462;6.902;2022-07-24T09:20:22;7.90;;;5.85;;
23046;SDS011;11691;51.462;6.902;2022-07-24T09:22:49;8.65;;;5.35;;
23046;SDS011;11691;51.462;6.902;2022-07-24T09:25:16;6.93;;;5.72;;
23046;SDS011;11691;51.462;6.902;2022-07-24T09:30:20;7.72;;;5.63;;
23046;SDS011;11691;51.462;6.902;2022-07-24T09:33:02;8.30;;;5.60;;
23046;SDS011;11691;51.462;6.902;2022-07-24T09:38:06;7.85;;;4.97;;
23046;SDS011;11691;51.462;6.902;2022-07-24T09:40:35;6.90;;;5.38;;
23046;SDS011;11691;51.462;6.902;2022-07-24T09:45:53;5.03;;;4.50;;
23046;SDS011;11691;51.462;6.902;2022-07-24T09:48:20;5.93;;;4.68;;
23046;SDS011;11691;51.462;6.902;2022-07-24T09:50:51;7.35;;;4.88;;
23046;SDS011;11691;51.462;6.902;2022-07-24T09:53:18;5.13;;;4.63;;
23046;SDS011;11691;51.462;6.902;2022-07-24T09:55:58;6.18;;;4.90;;
23046;SDS011;11691;51.462;6.902;2022-07-24T09:58:24;8.68;;;4.97;;
23046;SDS011;11691;51.462;6.902;2022-07-24T10:00:52;6.47;;;4.90;;
23046;SDS011;11691;51.462;6.902;2022-07-24T10:03:21;6.82;;;5.28;;
23046;SDS011;11691;51.462;6.902;2022-07-24T10:05:49;5.45;;;4.57;;
23046;SDS011;11691;51.462;6.902;2022-07-24T10:08:19;5.93;;;4.47;;
23046;SDS011;11691;51.462;6.902;2022-07-24T10:10:46;8.45;;;5.05;;
23046;SDS011;11691;51.462;6.902;2022-07-24T10:13:14;6.70;;;4.65;;
23046;SDS011;11691;51.462;6.902;2022-07-24T10:15:51;6.95;;;4.60;;
23046;SDS011;11691;51.462;6.902;2022-07-24T10:18:21;5.93;;;5.05;;
23046;SDS011;11691;51.462;6.902;2022-07-24T10:20:51;7.53;;;4.82;;
23046;SDS011;11691;51.462;6.902;2022-07-24T10:23:30;6.75;;;4.55;;
23046;SDS011;11691;51.462;6.902;2022-07-24T10:26:04;7.78;;;5.60;;
23046;SDS011;11691;51.462;6.902;2022-07-24T10:28:40;7.03;;;5.70;;
23046;SDS011;11691;51.462;6.902;2022-07-24T10:31:10;6.88;;;5.80;;
23046;SDS011;11691;51.462;6.902;2022-07-24T10:33:38;7.10;;;5.55;;
23046;SDS011;11691;51.462;6.902;2022-07-24T10:36:13;8.00;;;5.30;;
23046;SDS011;11691;51.462;6.902;2022-07-24T10:39:10;6.15;;;4.80;;
23046;SDS011;11691;51.462;6.902;2022-07-24T10:41:33;6.63;;;4.43;;
23046;SDS011;11691;51.462;6.902;2022-07-24T10:44:15;7.65;;;4.78;;
23046;SDS011;11691;51.462;6.902;2022-07-24T10:52:05;6.05;;;5.45;;
23046;SDS011;11691;51.462;6.902;2022-07-24T10:54:31;7.75;;;5.07;;
23046;SDS011;11691;51.462;6.902;2022-07-24T10:56:57;6.30;;;5.70;;
23046;SDS011;11691;51.462;6.902;2022-07-24T10:59:34;5.25;;;4.72;;
23046;SDS011;11691;51.462;6.902;2022-07-24T11:02:25;6.60;;;5.05;;
23046;SDS011;11691;51.462;6.902;2022-07-24T11:10:45;6.60;;;4.60;;
23046;SDS011;11691;51.462;6.902;2022-07-24T11:21:02;5.47;;;4.50;;
23046;SDS011;11691;51.462;6.902;2022-07-24T11:23:29;5.72;;;4.15;;
23046;SDS011;11691;51.462;6.902;2022-07-24T11:28:40;8.77;;;4.90;;
23046;SDS011;11691;51.462;6.902;2022-07-24T11:31:06;6.07;;;4.72;;
23046;SDS011;11691;51.462;6.902;2022-07-24T11:33:35;5.72;;;4.20;;
23046;SDS011;11691;51.462;6.902;2022-07-24T11:36:07;4.93;;;3.97;;
23046;SDS011;11691;51.462;6.902;2022-07-24T11:38:33;4.07;;;3.67;;
23046;SDS011;11691;51.462;6.902;2022-07-24T11:41:05;5.85;;;4.00;;
23046;SDS011;11691;51.462;6.902;2022-07-24T11:43:33;7.53;;;4.78;;
23046;SDS011;11691;51.462;6.902;2022-07-24T11:45:59;4.85;;;4.22;;
23046;SDS011;11691;51.462;6.902;2022-07-24T11:48:25;7.45;;;4.38;;
23046;SDS011;11691;51.462;6.902;2022-07-24T11:51:01;4.18;;;3.40;;
23046;SDS011;11691;51.462;6.902;2022-07-24T11:53:27;4.65;;;4.22;;
23046;SDS011;11691;51.462;6.902;2022-07-24T11:56:01;7.03;;;4.07;;
23046;SDS011;11691;51.462;6.902;2022-07-24T11:58:37;6.03;;;4.25;;
23046;SDS011;11691;51.462;6.902;2022-07-24T12:01:03;5.15;;;4.20;;
23046;SDS011;11691;51.462;6.902;2022-07-24T12:03:50;5.22;;;4.38;;
23046;SDS011;11691;51.462;6.902;2022-07-24T12:06:17;5.63;;;4.22;;
23046;SDS011;11691;51.462;6.902;2022-07-24T12:08:44;5.07;;;3.72;;
23046;SDS011;11691;51.462;6.902;2022-07-24T12:11:10;8.05;;;4.32;;
23046;SDS011;11691;51.462;6.902;2022-07-24T12:13:41;4.03;;;3.60;;
23046;SDS011;11691;51.462;6.902;2022-07-24T12:16:07;6.28;;;4.20;;
23046;SDS011;11691;51.462;6.902;2022-07-24T12:18:33;6.38;;;4.40;;
23046;SDS011;11691;51.462;6.902;2022-07-24T12:21:00;4.47;;;3.88;;
23046;SDS011;11691;51.462;6.902;2022-07-24T12:23:27;5.22;;;4.03;;
23046;SDS011;11691;51.462;6.902;2022-07-24T12:25:56;5.25;;;3.50;;
23046;SDS011;11691;51.462;6.902;2022-07-24T12:28:22;4.07;;;3.67;;
23046;SDS011;11691;51.462;6.902;2022-07-24T12:30:49;4.30;;;3.90;;
23046;SDS011;11691;51.462;6.902;2022-07-24T12:38:27;4.05;;;3.40;;
23046;SDS011;11691;51.462;6.902;2022-07-24T12:43:29;4.47;;;3.85;;
23046;SDS011;11691;51.462;6.902;2022-07-24T12:46:05;4.93;;;3.58;;
23046;SDS011;11691;51.462;6.902;2022-07-24T12:48:34;5.03;;;4.10;;
23046;SDS011;11691;51.462;6.902;2022-07-24T12:51:19;4.05;;;3.55;;
23046;SDS011;11691;51.462;6.902;2022-07-24T12:53:44;3.58;;;3.22;;
23046;SDS011;11691;51.462;6.902;2022-07-24T13:01:18;3.47;;;3.17;;
23046;SDS011;11691;51.462;6.902;2022-07-24T13:06:40;4.63;;;3.70;;
23046;SDS011;11691;51.462;6.902;2022-07-24T13:09:07;6.85;;;3.85;;
23046;SDS011;11691;51.462;6.902;2022-07-24T13:11:37;6.15;;;3.42;;
23046;SDS011;11691;51.462;6.902;2022-07-24T13:14:04;4.05;;;3.53;;
23046;SDS011;11691;51.462;6.902;2022-07-24T13:16:32;3.33;;;2.85;;
23046;SDS011;11691;51.462;6.902;2022-07-24T13:18:59;5.57;;;3.10;;
23046;SDS011;11691;51.462;6.902;2022-07-24T13:21:25;3.50;;;2.75;;
23046;SDS011;11691;51.462;6.902;2022-07-24T13:23:52;4.05;;;3.20;;
23046;SDS011;11691;51.462;6.902;2022-07-24T13:26:18;5.38;;;3.22;;
23046;SDS011;11691;51.462;6.902;2022-07-24T13:28:45;4.80;;;3.35;;
23046;SDS011;11691;51.462;6.902;2022-07-24T13:31:12;5.53;;;3.78;;
23046;SDS011;11691;51.462;6.902;2022-07-24T13:33:37;4.45;;;3.00;;
23046;SDS011;11691;51.462;6.902;2022-07-24T13:36:03;3.85;;;2.90;;
23046;SDS011;11691;51.462;6.902;2022-07-24T13:38:30;4.78;;;3.47;;
23046;SDS011;11691;51.462;6.902;2022-07-24T13:40:55;3.10;;;2.80;;
23046;SDS011;11691;51.462;6.902;2022-07-24T13:43:21;5.70;;;3.60;;
23046;SDS011;11691;51.462;6.902;2022-07-24T13:45:47;3.58;;;2.88;;
23046;SDS011;11691;51.462;6.902;2022-07-24T13:48:14;3.42;;;3.10;;
23046;SDS011;11691;51.462;6.902;2022-07-24T13:50:40;3.33;;;3.03;;
23046;SDS011;11691;51.462;6.902;2022-07-24T13:53:06;5.03;;;2.90;;
23046;SDS011;11691;51.462;6.902;2022-07-24T13:55:32;3.17;;;2.88;;
23046;SDS011;11691;51.462;6.902;2022-07-24T13:57:58;4.32;;;2.95;;
23046;SDS011;11691;51.462;6.902;2022-07-24T14:00:24;3.88;;;2.75;;
23046;SDS011;11691;51.462;6.902;2022-07-24T14:02:50;3.88;;;2.92;;
23046;SDS011;11691;51.462;6.902;2022-07-24T14:05:23;4.70;;;3.58;;
23046;SDS011;11691;51.462;6.902;2022-07-24T14:07:52;4.75;;;3.10;;
23046;SDS011;11691;51.462;6.902;2022-07-24T14:10:19;4.60;;;3.13;;
23046;SDS011;11691;51.462;6.902;2022-07-24T14:12:45;3.70;;;3.33;;
23046;SDS011;11691;51.462;6.902;2022-07-24T14:15:11;3.88;;;3.28;;
23046;SDS011;11691;51.462;6.902;2022-07-24T14:17:37;3.95;;;3.42;;
23046;SDS011;11691;51.462;6.902;2022-07-24T14:20:04;5.18;;;3.50;;
23046;SDS011;11691;51.462;6.902;2022-07-24T14:22:30;4.85;;;3.70;;
23046;SDS011;11691;51.462;6.902;2022-07-24T14:24:56;4.80;;;3.20;;
23046;SDS011;11691;51.462;6.902;2022-07-24T14:27:22;4.28;;;3.55;;
23046;SDS011;11691;51.462;6.902;2022-07-24T14:29:49;3.70;;;3.17;;
23046;SDS011;11691;51.462;6.902;2022-07-24T14:32:15;6.85;;;3.33;;
23046;SDS011;11691;51.462;6.902;2022-07-24T14:34:40;4.30;;;3.10;;
23046;SDS011;11691;51.462;6.902;2022-07-24T14:37:06;3.50;;;3.17;;
23046;SDS011;11691;51.462;6.902;2022-07-24T14:39:32;7.53;;;2.90;;
23046;SDS011;11691;51.462;6.902;2022-07-24T14:41:59;5.15;;;3.50;;
23046;SDS011;11691;51.462;6.902;2022-07-24T14:44:24;6.10;;;3.50;;
23046;SDS011;11691;51.462;6.902;2022-07-24T14:46:50;3.80;;;3.40;;
23046;SDS011;11691;51.462;6.902;2022-07-24T14:49:16;3.95;;;3.08;;
23046;SDS011;11691;51.462;6.902;2022-07-24T14:51:43;3.45;;;3.13;;
23046;SDS011;11691;51.462;6.902;2022-07-24T14:54:09;6.10;;;3.58;;
23046;SDS011;11691;51.462;6.902;2022-07-24T14:56:35;5.25;;;3.10;;
23046;SDS011;11691;51.462;6.902;2022-07-24T14:59:02;5.82;;;3.67;;
23046;SDS011;11691;51.462;6.902;2022-07-24T15:01:28;3.53;;;3.22;;
23046;SDS011;11691;51.462;6.902;2022-07-24T15:03:53;4.45;;;3.38;;
23046;SDS011;11691;51.462;6.902;2022-07-24T15:06:19;5.10;;;3.80;;
23046;SDS011;11691;51.462;6.902;2022-07-24T15:08:45;3.83;;;3.50;;
23046;SDS011;11691;51.462;6.902;2022-07-24T15:11:11;3.80;;;3.42;;
23046;SDS011;11691;51.462;6.902;2022-07-24T15:13:37;3.90;;;3.50;;
23046;SDS011;11691;51.462;6.902;2022-07-24T15:16:05;3.63;;;3.13;;
23046;SDS011;11691;51.462;6.902;2022-07-24T15:18:32;3.97;;;3.50;;
23046;SDS011;11691;51.462;6.902;2022-07-24T15:20:58;7.28;;;3.55;;
23046;SDS011;11691;51.462;6.902;2022-07-24T15:23:24;6.03;;;3.88;;
23046;SDS011;11691;51.462;6.902;2022-07-24T15:25:50;4.07;;;3.40;;
23046;SDS011;11691;51.462;6.902;2022-07-24T15:28:17;4.45;;;3.60;;
23046;SDS011;11691;51.462;6.902;2022-07-24T15:30:43;5.65;;;3.78;;
23046;SDS011;11691;51.462;6.902;2022-07-24T15:33:09;4.43;;;3.53;;